Time;durP1;ratioP1;P1;durP2;ratioP2;P2;SDS_P1;SDS_P2;PMS_P1;PMS_P2;Temp;Humidity;BMP_temperature;BMP_pressure;BME280_temperature;BME280_humidity;BME280_pressure;Samples;Min_cycle;Max_cycle;Signal;HPM_P1;HPM_P2
2022/11/19 00:01:08;;;;;;;2.40;1.13;;;;;;;4.65;71.91;91827.94;2064830;69;20153;-75
2022/11/19 00:03:35;;;;;;;5.85;1.20;;;;;;;4.58;72.15;91834.44;2064727;69;20263;-74
2022/11/19 00:06:09;;;;;;;1.17;0.88;;;;;;;4.55;71.82;91830.78;2064921;69;20184;-74
2022/11/19 00:08:35;;;;;;;1.80;0.90;;;;;;;4.64;72.07;91837.66;2064873;69;20169;-76
2022/11/19 00:11:11;;;;;;;1.67;0.93;;;;;;;4.50;72.83;91836.69;2065521;69;20610;-76
2022/11/19 00:13:38;;;;;;;4.25;1.77;;;;;;;4.05;74.61;91823.16;2064741;69;20149;-75
2022/11/19 00:16:10;;;;;;;3.40;2.00;;;;;;;4.19;73.90;91837.34;2063826;69;20488;-77
2022/11/19 00:18:35;;;;;;;2.78;1.90;;;;;;;4.38;73.53;91825.41;2064252;69;20156;-76
2022/11/19 00:21:09;;;;;;;2.90;1.77;;;;;;;4.42;72.44;91827.75;2064884;69;20148;-76
2022/11/19 00:23:36;;;;;;;2.72;1.45;;;;;;;4.38;72.91;91825.41;2064096;69;20165;-75
2022/11/19 00:26:07;;;;;;;1.95;1.40;;;;;;;4.68;72.53;91814.91;2065211;69;20145;-76
2022/11/19 00:28:33;;;;;;;2.45;1.10;;;;;;;4.69;71.80;91810.78;2064723;69;20145;-76
2022/11/19 00:31:01;;;;;;;3.42;1.20;;;;;;;4.75;72.06;91809.13;2064878;69;20484;-75
2022/11/19 00:33:28;;;;;;;1.77;1.30;;;;;;;4.63;72.86;91824.28;2064901;69;20153;-75
2022/11/19 00:35:59;;;;;;;3.55;1.40;;;;;;;4.05;75.33;91823.16;2065380;69;20157;-76
2022/11/19 00:38:25;;;;;;;2.10;1.25;;;;;;;4.18;75.08;91821.97;2065369;69;20680;-76
2022/11/19 00:40:51;;;;;;;2.15;1.50;;;;;;;4.25;74.61;91821.06;2065494;69;20145;-74
2022/11/19 00:46:02;;;;;;;2.55;1.67;;;;;;;4.19;74.34;91831.06;2064955;69;20145;-75
2022/11/19 00:48:28;;;;;;;2.83;1.95;;;;;;;4.39;73.99;91831.72;2064883;69;20234;-74
2022/11/19 00:50:53;;;;;;;4.07;2.03;;;;;;;4.50;73.40;91834.63;2066137;69;20141;-75
2022/11/19 00:53:19;;;;;;;3.03;1.80;;;;;;;4.52;73.49;91831.22;2071762;69;20145;-75
2022/11/19 00:55:44;;;;;;;1.85;1.35;;;;;;;4.57;72.84;91836.50;2072042;69;20183;-78
2022/11/19 00:58:10;;;;;;;1.80;1.23;;;;;;;4.64;72.51;91840.44;2068897;69;20152;-76
2022/11/19 01:00:37;;;;;;;2.53;1.25;;;;;;;4.70;72.68;91837.31;2065384;69;20236;-76
2022/11/19 01:03:03;;;;;;;2.60;1.50;;;;;;;4.61;73.41;91838.09;2064916;69;20141;-76
2022/11/19 01:05:29;;;;;;;2.33;1.40;;;;;;;4.74;73.06;91843.19;2064610;69;20145;-76
2022/11/19 01:07:55;;;;;;;2.53;1.52;;;;;;;4.74;72.75;91843.91;2063530;69;20134;-75
2022/11/19 01:10:20;;;;;;;3.95;1.50;;;;;;;4.75;72.62;91848.16;2063638;69;20145;-77
2022/11/19 01:15:32;;;;;;;5.82;2.40;;;;;;;4.47;74.10;91852.53;2064212;69;20559;-75
2022/11/19 01:17:58;;;;;;;3.47;2.00;;;;;;;4.67;73.13;91852.44;2064597;69;20196;-75
2022/11/19 01:20:23;;;;;;;4.72;2.40;;;;;;;4.76;73.17;91852.41;2064498;69;20153;-75
2022/11/19 01:22:49;;;;;;;3.83;2.35;;;;;;;4.74;73.40;91855.06;2063934;69;20187;-75
2022/11/19 01:25:14;;;;;;;4.07;2.03;;;;;;;4.76;73.22;91846.81;2065037;69;20176;-75
2022/11/19 01:27:40;;;;;;;4.40;2.00;;;;;;;4.67;72.73;91850.38;2067513;69;20192;-75
2022/11/19 01:30:06;;;;;;;7.22;2.40;;;;;;;4.59;73.29;91850.56;2067861;69;20133;-75
2022/11/19 01:32:33;;;;;;;3.65;2.28;;;;;;;4.66;73.36;91859.34;2067860;69;20557;-75
2022/11/19 01:35:00;;;;;;;3.38;1.83;;;;;;;4.72;72.78;91851.38;2067933;69;20206;-76
2022/11/19 01:37:27;;;;;;;3.90;2.17;;;;;;;4.41;74.48;91854.91;2067775;69;20168;-74
2022/11/19 01:39:52;;;;;;;3.88;2.38;;;;;;;4.54;73.59;91862.03;2067421;69;20239;-75
2022/11/19 01:45:41;;;;;;;3.83;2.20;;;;;;;4.69;72.25;91852.59;2067610;69;20148;-75
2022/11/19 01:48:59;;;;;;;3.08;1.92;;;;;;;4.64;73.20;91859.94;2066260;69;20176;-75
2022/11/19 01:51:31;;;;;;;3.97;1.80;;;;;;;4.68;72.49;91860.22;2063294;69;20260;-76
2022/11/19 01:54:00;;;;;;;2.75;1.73;;;;;;;4.57;73.14;91869.19;2068196;69;20235;-76
2022/11/19 01:56:28;;;;;;;4.22;2.28;;;;;;;4.57;72.79;91863.63;2067271;69;20295;-75
2022/11/19 01:58:59;;;;;;;6.90;2.05;;;;;;;4.58;72.95;91859.50;2068014;69;20145;-75
2022/11/19 02:01:27;;;;;;;2.05;1.50;;;;;;;4.55;73.16;91866.28;2067303;69;20251;-75
2022/11/19 02:03:52;;;;;;;3.30;1.40;;;;;;;4.55;73.38;91866.28;2067420;69;20167;-75
2022/11/19 02:06:19;;;;;;;6.05;1.17;;;;;;;4.63;72.21;91864.06;2066613;69;20279;-75
2022/11/19 02:08:49;;;;;;;2.42;1.70;;;;;;;4.59;72.53;91875.66;2067042;69;20240;-76
2022/11/19 02:11:46;;;;;;;4.55;2.60;;;;;;;4.46;73.64;91870.56;2067567;69;20152;-75
2022/11/19 02:14:29;;;;;;;4.95;2.80;;;;;;;4.49;73.26;91874.97;2064391;69;20143;-76
2022/11/19 02:17:22;;;;;;;6.05;2.47;;;;;;;4.52;72.50;91873.03;2063737;69;20616;-75
2022/11/19 02:20:12;;;;;;;6.40;3.15;;;;;;;4.49;72.36;91874.22;2061256;69;20200;-75
2022/11/19 02:23:11;;;;;;;6.10;2.55;;;;;;;4.45;72.86;91877.47;2064579;69;20244;-76
2022/11/19 02:25:45;;;;;;;4.82;3.00;;;;;;;4.31;73.74;91877.22;2066468;69;20168;-75
2022/11/19 02:28:33;;;;;;;7.30;2.70;;;;;;;4.38;74.33;91883.22;2068314;69;20159;-76
2022/11/19 02:31:08;;;;;;;11.10;3.97;;;;;;;4.33;74.39;91876.63;2068191;69;20497;-77
2022/11/19 02:33:48;;;;;;;3.85;2.40;;;;;;;4.51;73.84;91874.38;2067662;69;20136;-77
2022/11/19 02:36:32;;;;;;;3.50;1.67;;;;;;;4.65;73.49;91874.63;2067855;69;20144;-76
2022/11/19 02:39:12;;;;;;;5.78;3.13;;;;;;;3.98;75.80;91871.41;2067566;69;20149;-76
2022/11/19 02:41:54;;;;;;;5.13;2.40;;;;;;;4.31;75.64;91882.06;2064451;69;20171;-76
2022/11/19 02:44:57;;;;;;;5.22;2.60;;;;;;;4.51;74.62;91874.38;2067588;69;20197;-76
2022/11/19 02:48:04;;;;;;;3.90;2.35;;;;;;;4.57;73.90;91878.28;2067128;69;20180;-76
2022/11/19 02:50:35;;;;;;;4.32;2.42;;;;;;;4.63;73.76;91883.59;2067524;69;20253;-76
2022/11/19 02:53:03;;;;;;;3.22;2.10;;;;;;;4.69;72.77;91874.91;2067687;69;20145;-76
2022/11/19 02:55:29;;;;;;;7.35;2.53;;;;;;;4.56;74.13;91879.63;2067448;69;20144;-76
2022/11/19 02:58:07;;;;;;;4.93;2.58;;;;;;;4.55;73.83;91883.00;2067535;69;20227;-77
2022/11/19 03:06:19;;;;;;;5.88;2.30;;;;;;;4.53;74.80;91886.38;2067668;69;20136;-77
2022/11/19 03:08:45;;;;;;;3.53;2.10;;;;;;;4.53;74.19;91880.81;2068328;69;20156;-76
2022/11/19 03:11:23;;;;;;;4.68;2.53;;;;;;;4.63;74.51;91880.78;2068264;69;20235;-76
2022/11/19 03:17:24;;;;;;;5.18;2.38;;;;;;;4.63;73.88;91883.59;2068972;69;20651;-75
2022/11/19 03:19:59;;;;;;;3.88;2.15;;;;;;;4.65;73.62;91883.72;2068206;69;20129;-76
2022/11/19 03:22:30;;;;;;;5.32;2.15;;;;;;;4.66;74.10;91881.66;2065002;69;20148;-76
2022/11/19 03:25:04;;;;;;;5.40;2.20;;;;;;;4.76;74.17;91882.34;2068263;69;20627;-76
2022/11/19 03:27:49;;;;;;;4.22;2.30;;;;;;;4.69;74.06;91881.19;2068122;69;20339;-76
2022/11/19 03:30:17;;;;;;;4.10;2.20;;;;;;;4.73;73.79;91880.75;2064094;69;20152;-76
2022/11/19 03:32:55;;;;;;;5.68;2.50;;;;;;;4.46;75.07;91881.72;2064952;69;20148;-75
2022/11/19 03:35:31;;;;;;;3.78;2.22;;;;;;;4.67;74.20;91883.09;2068419;69;20159;-75
2022/11/19 03:38:03;;;;;;;7.35;2.30;;;;;;;4.64;74.20;91884.31;2068272;69;20607;-76
2022/11/19 03:40:34;;;;;;;4.68;2.65;;;;;;;4.42;75.75;91875.13;2064760;69;20172;-77
2022/11/19 03:43:04;;;;;;;13.77;5.57;;;;;;;4.29;76.13;91884.69;2064910;69;20238;-76
2022/11/19 03:45:36;;;;;;;8.75;3.72;;;;;;;4.37;75.31;91892.91;2068135;69;20145;-77
2022/11/19 03:48:03;;;;;;;7.45;3.00;;;;;;;4.38;75.85;91897.13;2068142;69;20242;-77
2022/11/19 03:50:41;;;;;;;3.78;2.05;;;;;;;4.58;74.69;91890.19;2068256;69;20254;-77
2022/11/19 03:53:08;;;;;;;2.65;1.60;;;;;;;4.65;74.30;91897.66;2068288;69;20557;-76
2022/11/19 03:55:40;;;;;;;2.47;1.70;;;;;;;4.67;74.05;91897.03;2064491;69;20621;-77
2022/11/19 03:58:08;;;;;;;5.45;2.10;;;;;;;4.27;75.91;91901.28;2068111;69;20616;-78
2022/11/19 04:00:34;;;;;;;2.25;1.50;;;;;;;4.33;75.75;91896.13;2068076;69;20168;-78
2022/11/19 04:02:59;;;;;;;3.10;2.00;;;;;;;4.39;75.20;91902.13;2068109;69;20155;-78
2022/11/19 04:05:25;;;;;;;2.38;1.77;;;;;;;4.49;74.27;91902.84;2068208;69;20136;-78
2022/11/19 04:07:51;;;;;;;5.03;2.40;;;;;;;4.42;74.15;91898.16;2068126;69;20235;-78
2022/11/19 04:10:17;;;;;;;5.60;2.20;;;;;;;4.45;74.88;91899.78;2068157;69;20188;-78
2022/11/19 04:12:42;;;;;;;3.47;2.20;;;;;;;4.53;74.05;91896.78;2068265;69;20236;-78
2022/11/19 04:15:11;;;;;;;4.90;1.92;;;;;;;4.48;74.33;91884.63;2067606;69;20163;-77
2022/11/19 04:17:37;;;;;;;3.00;1.88;;;;;;;4.37;74.25;91890.09;2064483;69;20222;-78
2022/11/19 04:20:04;;;;;;;2.45;1.70;;;;;;;4.26;74.62;91883.06;2067944;69;20201;-78
2022/11/19 04:22:30;;;;;;;4.47;2.00;;;;;;;4.23;74.92;91887.78;2068035;69;20287;-78
2022/11/19 04:24:55;;;;;;;2.97;1.80;;;;;;;4.30;74.20;91884.09;2067897;69;20555;-77
2022/11/19 04:27:21;;;;;;;2.72;1.80;;;;;;;4.08;75.66;91885.34;2068021;69;20167;-75
2022/11/19 04:29:47;;;;;;;3.45;1.90;;;;;;;4.17;75.25;91881.03;2068117;69;20140;-78
2022/11/19 04:32:12;;;;;;;3.55;2.75;;;;;;;4.12;74.84;91887.66;2068405;69;20132;-78
2022/11/19 04:34:38;;;;;;;3.08;2.25;;;;;;;4.14;75.54;91882.97;2068334;69;20137;-78
2022/11/19 04:37:05;;;;;;;6.07;2.88;;;;;;;3.99;75.61;91891.66;2068246;69;20129;-78
2022/11/19 04:39:31;;;;;;;6.28;3.47;;;;;;;3.66;77.44;91897.63;2068452;69;20171;-78
2022/11/19 04:41:56;;;;;;;9.23;2.95;;;;;;;3.57;77.06;91895.59;2068173;69;20492;-77
2022/11/19 04:44:22;;;;;;;5.32;2.83;;;;;;;3.54;77.76;91908.63;2068259;69;20144;-77
2022/11/19 04:46:47;;;;;;;4.53;2.67;;;;;;;3.78;76.42;91908.94;2068119;69;20567;-77
2022/11/19 04:49:13;;;;;;;4.90;3.03;;;;;;;3.74;76.41;91917.72;2068303;69;20168;-77
2022/11/19 04:51:38;;;;;;;6.03;2.63;;;;;;;3.81;76.94;91921.69;2065520;69;20137;-76
2022/11/19 04:54:07;;;;;;;4.07;2.28;;;;;;;3.85;76.54;91919.22;2069742;69;20172;-77
2022/11/19 04:56:33;;;;;;;4.53;2.75;;;;;;;3.95;76.17;91922.72;2068251;69;20163;-77
2022/11/19 04:58:59;;;;;;;4.00;2.45;;;;;;;3.93;76.31;91914.19;2064895;69;20136;-77
2022/11/19 05:01:25;;;;;;;3.45;2.20;;;;;;;4.08;75.81;91910.41;2068067;69;20153;-77
2022/11/19 05:03:51;;;;;;;3.15;2.10;;;;;;;3.89;76.44;91902.03;2068227;69;20144;-77
2022/11/19 05:06:17;;;;;;;4.75;2.65;;;;;;;3.96;76.27;91912.31;2064844;69;20152;-77
2022/11/19 05:08:43;;;;;;;4.03;2.40;;;;;;;4.04;75.68;91919.19;2068093;69;20631;-77
2022/11/19 05:11:09;;;;;;;5.72;3.60;;;;;;;4.06;76.15;91915.81;2068202;69;20344;-77
2022/11/19 05:13:34;;;;;;;5.80;3.92;;;;;;;3.95;76.62;91919.94;2068156;69;20137;-77
2022/11/19 05:16:00;;;;;;;9.52;5.80;;;;;;;4.01;76.55;91909.22;2067997;69;20256;-77
2022/11/19 05:18:25;;;;;;;5.10;3.47;;;;;;;3.90;76.85;91912.59;2068119;69;20237;-77
2022/11/19 05:20:51;;;;;;;7.05;5.05;;;;;;;4.03;76.81;91905.84;2068161;69;20145;-77
2022/11/19 05:23:17;;;;;;;8.20;4.15;;;;;;;4.08;75.57;91907.63;2067984;69;20132;-77
2022/11/19 05:25:42;;;;;;;5.32;3.67;;;;;;;3.60;78.23;91902.03;2067564;69;20578;-77
2022/11/19 05:28:08;;;;;;;12.95;4.38;;;;;;;3.79;78.01;91900.00;2068097;69;20249;-77
2022/11/19 05:30:34;;;;;;;7.13;3.78;;;;;;;3.78;76.83;91889.44;2068065;69;20199;-77
2022/11/19 05:32:59;;;;;;;5.90;3.65;;;;;;;3.65;77.61;91901.75;2068213;69;20231;-77
2022/11/19 05:35:25;;;;;;;5.63;3.35;;;;;;;3.39;78.21;91886.66;2068336;69;20160;-77
2022/11/19 05:37:51;;;;;;;6.45;3.08;;;;;;;3.37;79.08;91900.41;2064776;69;20529;-77
2022/11/19 05:40:17;;;;;;;7.35;3.10;;;;;;;3.30;78.86;91895.72;2068370;69;20496;-77
2022/11/19 05:42:42;;;;;;;8.48;4.57;;;;;;;3.14;78.90;91903.59;2067740;69;20528;-77
2022/11/19 05:45:09;;;;;;;11.35;3.83;;;;;;;3.04;80.01;91911.91;2068199;69;20148;-77
2022/11/19 05:47:35;;;;;;;7.60;3.97;;;;;;;3.17;79.59;91916.34;2068387;69;20228;-77
2022/11/19 05:50:02;;;;;;;9.80;4.10;;;;;;;3.26;78.10;91910.06;2068455;69;20178;-77
2022/11/19 05:52:28;;;;;;;6.22;4.05;;;;;;;3.43;77.28;91922.38;2069269;69;20133;-77
2022/11/19 05:54:53;;;;;;;7.25;4.60;;;;;;;3.45;77.03;91912.16;2068672;69;20141;-76
2022/11/19 05:57:19;;;;;;;5.75;3.95;;;;;;;3.41;76.89;91922.25;2068751;69;20589;-77
2022/11/19 05:59:44;;;;;;;8.35;4.00;;;;;;;3.44;76.44;91923.88;2069165;69;20141;-77
2022/11/19 06:02:10;;;;;;;5.40;3.50;;;;;;;3.39;77.22;91917.28;2072059;69;20171;-76
2022/11/19 06:04:35;;;;;;;5.90;3.38;;;;;;;3.44;76.84;91930.16;2075148;69;20172;-76
2022/11/19 06:07:01;;;;;;;9.13;4.90;;;;;;;2.96;78.11;91910.56;2075625;69;20148;-77
2022/11/19 06:09:26;;;;;;;8.00;4.65;;;;;;;3.31;77.95;91920.19;2071051;69;20165;-76
2022/11/19 06:11:52;;;;;;;9.07;5.32;;;;;;;3.47;77.84;91925.47;2065715;69;20152;-77
2022/11/19 06:14:21;;;;;;;8.40;5.07;;;;;;;3.48;77.38;91913.75;2065065;69;20153;-77
2022/11/19 06:16:51;;;;;;;9.00;5.03;;;;;;;3.50;77.06;91924.31;2067991;69;20218;-77
2022/11/19 06:19:19;;;;;;;9.18;4.70;;;;;;;3.62;77.27;91922.41;2068031;69;20148;-77
2022/11/19 06:21:44;;;;;;;13.80;6.68;;;;;;;3.60;77.35;91918.75;2068071;69;20157;-77
2022/11/19 06:24:11;;;;;;;11.00;6.05;;;;;;;3.62;76.05;91925.22;2064621;69;20271;-77
2022/11/19 06:26:39;;;;;;;8.60;5.28;;;;;;;3.66;76.73;91924.75;2067972;69;20227;-77
2022/11/19 06:29:05;;;;;;;8.27;4.70;;;;;;;3.60;76.78;91922.25;2068858;69;20666;-77
2022/11/19 06:31:31;;;;;;;8.60;5.28;;;;;;;3.53;76.42;91921.09;2065879;69;20247;-78
2022/11/19 06:33:56;;;;;;;6.15;3.88;;;;;;;3.54;76.17;91919.78;2068141;69;20220;-77
2022/11/19 06:36:22;;;;;;;5.55;3.58;;;;;;;3.53;76.12;91918.31;2068247;69;20497;-77
2022/11/19 06:38:48;;;;;;;7.45;4.20;;;;;;;3.45;75.40;91917.72;2067959;69;20202;-77
2022/11/19 06:41:14;;;;;;;13.98;7.95;;;;;;;3.32;76.64;91918.13;2064517;69;20225;-77
2022/11/19 06:43:40;;;;;;;11.93;6.40;;;;;;;3.32;76.62;91923.69;2064617;69;20180;-77
2022/11/19 06:46:06;;;;;;;11.38;6.70;;;;;;;3.22;77.04;91932.00;2067932;69;20140;-77
2022/11/19 06:48:31;;;;;;;9.02;5.75;;;;;;;3.16;77.77;91922.47;2067933;69;20140;-77
2022/11/19 06:50:57;;;;;;;9.93;5.78;;;;;;;3.17;77.96;91935.81;2067937;69;20141;-77
2022/11/19 06:53:23;;;;;;;11.63;7.30;;;;;;;3.20;77.62;91937.41;2067964;69;20217;-77
2022/11/19 06:55:57;;;;;;;11.45;6.70;;;;;;;3.23;77.35;91939.03;2068168;69;20148;-77
2022/11/19 06:58:23;;;;;;;10.65;6.50;;;;;;;3.28;77.30;91956.75;2064520;69;20149;-77
2022/11/19 07:00:49;;;;;;;15.02;8.48;;;;;;;3.25;77.99;91952.34;2064474;69;20136;-78
2022/11/19 07:03:15;;;;;;;18.25;11.80;;;;;;;3.26;77.25;91951.06;2067902;69;20470;-77
2022/11/19 07:05:41;;;;;;;21.05;11.40;;;;;;;3.27;77.37;91953.25;2068030;69;20271;-78
2022/11/19 07:08:06;;;;;;;15.88;9.55;;;;;;;3.36;77.66;91967.78;2068045;69;20195;-78
2022/11/19 07:10:32;;;;;;;12.73;8.05;;;;;;;3.43;76.66;91958.53;2067835;69;20164;-77
2022/11/19 07:12:58;;;;;;;13.48;7.30;;;;;;;3.55;76.95;91968.53;2067849;69;20145;-78
2022/11/19 07:15:24;;;;;;;7.38;4.85;;;;;;;3.46;77.26;91972.03;2067734;69;20137;-77
2022/11/19 07:17:49;;;;;;;13.57;7.45;;;;;;;3.55;77.19;91976.16;2068163;69;20148;-77
2022/11/19 07:20:15;;;;;;;15.15;8.88;;;;;;;3.62;77.23;91978.09;2067885;69;20253;-77
2022/11/19 07:22:41;;;;;;;16.75;10.85;;;;;;;3.66;76.86;91980.41;2067872;69;20164;-77
2022/11/19 07:25:11;;;;;;;18.10;9.65;;;;;;;3.63;77.33;91984.38;2067907;69;20553;-77
2022/11/19 07:27:36;;;;;;;16.17;9.93;;;;;;;3.67;77.20;91995.81;2067831;69;20500;-77
2022/11/19 07:30:04;;;;;;;17.30;8.45;;;;;;;3.74;76.90;91981.03;2067815;69;20157;-78
2022/11/19 07:32:32;;;;;;;28.77;15.05;;;;;;;3.70;77.26;91984.22;2064504;69;20149;-79
2022/11/19 07:34:58;;;;;;;21.77;11.45;;;;;;;3.59;77.16;91984.81;2067986;69;20155;-78
2022/11/19 07:37:24;;;;;;;23.38;12.77;;;;;;;3.72;77.41;91984.41;2067835;69;20178;-76
2022/11/19 07:39:51;;;;;;;23.13;11.85;;;;;;;3.89;77.10;91980.00;2071295;69;20144;-78
2022/11/19 07:45:07;;;;;;;19.67;9.75;;;;;;;3.51;77.86;91987.72;2071052;69;20140;-78
2022/11/19 07:47:34;;;;;;;18.27;9.90;;;;;;;3.87;77.17;91993.78;2071096;69;20231;-79
2022/11/19 07:50:01;;;;;;;24.55;12.90;;;;;;;3.68;78.19;92000.78;2068414;69;20140;-78
2022/11/19 07:52:27;;;;;;;22.10;12.30;;;;;;;4.02;78.07;92007.44;2068466;69;20161;-78
2022/11/19 07:54:53;;;;;;;20.30;11.02;;;;;;;4.16;77.01;92008.44;2072315;69;20199;-78
2022/11/19 07:57:19;;;;;;;14.98;9.95;;;;;;;3.90;77.46;92009.34;2068376;69;20263;-78
2022/11/19 07:59:45;;;;;;;19.30;11.27;;;;;;;4.21;77.05;92010.22;2071794;69;20485;-76
2022/11/19 08:02:13;;;;;;;23.85;11.27;;;;;;;4.61;76.69;92010.94;2071755;69;20188;-77
2022/11/19 08:04:39;;;;;;;18.83;10.85;;;;;;;4.73;76.33;92004.16;2068359;69;20639;-78
2022/11/19 08:07:06;;;;;;;18.20;10.98;;;;;;;4.65;75.91;92009.16;2069046;69;20211;-77
2022/11/19 08:09:32;;;;;;;20.10;12.25;;;;;;;4.72;76.10;92007.53;2074748;69;20175;-78
2022/11/19 08:11:57;;;;;;;21.30;12.00;;;;;;;5.00;75.33;92012.31;2072213;69;20148;-78
2022/11/19 08:14:23;;;;;;;23.98;12.25;;;;;;;5.30;75.40;92016.47;2071668;69;20144;-79
2022/11/19 08:19:32;;;;;;;23.08;12.40;;;;;;;5.70;75.01;92011.44;2071620;69;20232;-78
2022/11/19 08:21:58;;;;;;;22.02;10.57;;;;;;;5.95;75.12;92019.41;2071649;69;20148;-78
2022/11/19 08:24:23;;;;;;;21.52;10.00;;;;;;;6.20;73.17;92010.59;2071426;69;20147;-78
2022/11/19 08:26:49;;;;;;;19.17;10.95;;;;;;;6.45;73.08;92010.81;2071840;69;20256;-78
2022/11/19 08:29:17;;;;;;;17.80;9.57;;;;;;;6.59;71.82;92022.91;2071714;69;20235;-79
2022/11/19 08:31:45;;;;;;;8.00;3.20;;;;;;;6.62;68.45;92018.19;2071551;69;20155;-78
2022/11/19 08:34:10;;;;;;;10.73;6.97;;;;;;;6.71;70.48;92016.63;2071538;69;20254;-78
2022/11/19 08:36:36;;;;;;;7.78;5.10;;;;;;;6.87;68.29;92024.00;2068201;69;20148;-77
2022/11/19 08:39:03;;;;;;;12.38;6.88;;;;;;;7.09;68.61;92018.31;2071842;69;20136;-77
2022/11/19 08:44:13;;;;;;;11.93;6.00;;;;;;;7.73;68.15;92020.81;2071716;69;20140;-77
2022/11/19 08:46:39;;;;;;;9.02;6.10;;;;;;;7.33;65.67;92011.44;2071408;69;20213;-77
2022/11/19 08:49:06;;;;;;;10.38;5.82;;;;;;;8.02;67.54;92016.94;2071513;69;20771;-79
2022/11/19 08:51:32;;;;;;;9.18;5.38;;;;;;;8.46;67.07;92018.81;2071574;69;20159;-79
2022/11/19 08:53:57;;;;;;;7.88;4.97;;;;;;;7.91;64.33;92029.59;2068290;69;20569;-79
2022/11/19 08:56:23;;;;;;;9.80;3.40;;;;;;;8.32;62.98;92020.75;2071572;69;20144;-79
2022/11/19 08:58:51;;;;;;;6.45;4.40;;;;;;;8.34;62.85;92023.69;2071642;69;20136;-79
2022/11/19 09:01:18;;;;;;;4.20;3.30;;;;;;;7.83;61.63;92023.50;2071475;69;20259;-80
2022/11/19 09:03:44;;;;;;;8.73;3.80;;;;;;;8.00;64.10;92025.94;2071635;69;20588;-79
2022/11/19 09:06:11;;;;;;;9.90;5.25;;;;;;;8.39;63.85;92033.84;2071362;69;20143;-78
2022/11/19 09:08:37;;;;;;;11.80;6.03;;;;;;;8.27;62.37;92036.63;2071452;69;20152;-77
2022/11/19 09:11:07;;;;;;;12.13;6.90;;;;;;;8.52;62.81;92027.59;2071505;69;20235;-76
2022/11/19 09:13:33;;;;;;;10.65;6.40;;;;;;;8.54;61.56;92030.50;2071410;69;20140;-76
2022/11/19 09:15:58;;;;;;;9.57;5.20;;;;;;;9.78;62.22;92038.66;2071350;69;20148;-75
2022/11/19 09:18:24;;;;;;;8.90;5.63;;;;;;;8.76;59.25;92035.94;2071430;69;20162;-78
2022/11/19 09:20:54;;;;;;;10.88;6.10;;;;;;;8.90;60.18;92031.84;2068111;69;20167;-78
2022/11/19 09:23:23;;;;;;;8.00;4.47;;;;;;;9.75;59.12;92040.63;2071376;69;20608;-77
2022/11/19 09:25:57;;;;;;;6.65;4.25;;;;;;;9.62;57.46;92044.88;2071365;69;20224;-78
2022/11/19 09:28:23;;;;;;;7.97;4.30;;;;;;;10.33;58.26;92045.06;2071413;69;20136;-78
2022/11/19 09:31:01;;;;;;;7.28;3.50;;;;;;;10.19;55.45;92044.31;2067926;69;20227;-77
2022/11/19 09:33:30;;;;;;;3.75;2.75;;;;;;;10.25;56.31;92035.47;2071530;69;20276;-78
2022/11/19 09:35:55;;;;;;;5.32;2.90;;;;;;;10.21;56.12;92044.41;2071374;69;20148;-77
2022/11/19 09:38:21;;;;;;;4.10;2.70;;;;;;;9.80;56.31;92039.47;2071364;69;20539;-78
2022/11/19 09:40:55;;;;;;;4.38;2.95;;;;;;;8.92;57.30;92042.44;2071548;69;20483;-79
2022/11/19 09:43:31;;;;;;;4.95;2.63;;;;;;;8.98;56.40;92039.97;2071472;69;20140;-78
2022/11/19 09:46:15;;;;;;;14.40;7.57;;;;;;;10.51;55.86;92036.81;2073262;69;20164;-77
2022/11/19 09:48:41;;;;;;;31.65;15.85;;;;;;;10.16;55.20;92039.94;2071595;69;20247;-75
2022/11/19 09:51:28;;;;;;;9.57;5.25;;;;;;;11.27;53.60;92041.22;2071336;69;20168;-77
2022/11/19 09:54:06;;;;;;;13.85;6.45;;;;;;;10.79;53.86;92033.97;2071430;69;20634;-80
2022/11/19 09:56:41;;;;;;;6.63;4.38;;;;;;;10.48;52.46;92034.53;2071495;69;20252;-77
2022/11/19 09:59:34;;;;;;;15.43;8.15;;;;;;;10.87;52.78;92025.91;2070768;69;20156;-81
2022/11/19 10:02:00;;;;;;;14.85;6.55;;;;;;;11.97;49.48;92019.78;2071256;69;20136;-78
2022/11/19 10:04:30;;;;;;;8.23;4.88;;;;;;;11.16;49.13;92020.28;2071204;69;20489;-77
2022/11/19 10:07:18;;;;;;;14.18;7.40;;;;;;;11.30;51.07;92013.88;2071292;69;20574;-79
2022/11/19 10:10:21;;;;;;;13.68;7.10;;;;;;;11.97;49.37;92004.97;2071302;69;20238;-78
2022/11/19 10:13:12;;;;;;;14.52;7.65;;;;;;;13.04;48.13;92010.88;2071461;69;20159;-78
2022/11/19 10:15:51;;;;;;;15.18;8.32;;;;;;;13.33;45.86;92013.53;2071109;69;20223;-78
2022/11/19 10:18:25;;;;;;;13.77;8.23;;;;;;;13.51;46.53;92010.66;2071346;69;20200;-77
2022/11/19 10:21:20;;;;;;;13.30;7.38;;;;;;;14.65;44.50;92005.66;2071411;69;20635;-76
2022/11/19 10:23:53;;;;;;;12.93;7.38;;;;;;;14.42;43.15;92009.78;2071074;69;20197;-78
2022/11/19 10:26:33;;;;;;;12.65;7.15;;;;;;;16.48;41.86;91994.34;2071130;69;20156;-78
2022/11/19 10:29:02;;;;;;;12.85;7.68;;;;;;;16.80;40.55;91970.34;2071370;69;20152;-78
2022/11/19 10:31:36;;;;;;;18.65;9.27;;;;;;;16.70;40.06;91997.09;2071179;69;20247;-78
2022/11/19 10:34:17;;;;;;;17.85;11.57;;;;;;;16.25;38.76;91993.00;2071244;69;20186;-78
2022/11/19 10:36:45;;;;;;;9.63;6.18;;;;;;;17.48;37.21;91990.53;2071290;69;20330;-78
2022/11/19 10:39:31;;;;;;;6.53;3.95;;;;;;;18.35;37.27;91988.94;2067962;69;20164;-78
2022/11/19 10:42:27;;;;;;;6.00;4.15;;;;;;;19.04;36.56;91989.59;2071383;69;20164;-78
2022/11/19 10:45:02;;;;;;;6.00;4.40;;;;;;;20.26;34.23;91994.44;2071265;69;20552;-78
2022/11/19 10:47:40;;;;;;;6.25;4.30;;;;;;;20.14;31.04;91990.66;2071372;69;20139;-78
2022/11/19 10:50:06;;;;;;;5.70;3.97;;;;;;;20.59;30.73;91994.16;2071339;69;20223;-79
2022/11/19 10:52:51;;;;;;;4.22;2.80;;;;;;;22.68;30.23;91989.56;2071294;69;20544;-81
2022/11/19 10:55:26;;;;;;;7.70;3.03;;;;;;;24.32;28.54;91988.38;2071490;69;20144;-77
2022/11/19 10:58:05;;;;;;;4.50;3.63;;;;;;;23.95;26.06;91990.56;2071275;69;20163;-77
2022/11/19 11:00:32;;;;;;;11.20;8.35;;;;;;;24.49;25.94;91988.38;2071265;69;20306;-77
2022/11/19 11:03:03;;;;;;;11.38;7.15;;;;;;;25.10;25.16;91986.03;2071172;69;20155;-77
2022/11/19 11:05:29;;;;;;;18.63;10.43;;;;;;;24.39;24.69;91980.50;2071258;69;20155;-78
2022/11/19 11:07:57;;;;;;;21.85;11.35;;;;;;;24.25;24.56;91974.75;2071001;69;20243;-76
2022/11/19 11:10:29;;;;;;;22.27;12.05;;;;;;;23.10;26.74;91971.06;2071269;69;20674;-76
2022/11/19 11:15:49;;;;;;;6.72;5.18;;;;;;;22.71;27.78;91965.16;2077861;69;20159;-74
2022/11/19 11:18:16;;;;;;;7.13;5.13;;;;;;;24.39;25.08;91953.91;2075398;69;20156;-76
2022/11/19 11:20:48;;;;;;;11.63;7.93;;;;;;;24.71;24.00;91950.22;2076000;69;20159;-77
2022/11/19 11:23:21;;;;;;;3.75;2.40;;;;;;;23.81;25.02;91945.31;2072107;69;20188;-75
2022/11/19 11:26:10;;;;;;;1.90;1.10;;;;;;;23.72;23.61;91948.91;2068089;69;20240;-77
2022/11/19 11:28:36;;;;;;;2.67;1.73;;;;;;;24.07;25.38;91941.72;2071406;69;20227;-75
2022/11/19 11:31:04;;;;;;;4.07;2.70;;;;;;;25.47;22.74;91947.66;2071569;69;20243;-75
2022/11/19 11:33:53;;;;;;;4.95;2.67;;;;;;;21.70;24.61;91939.47;2071835;69;20152;-76
2022/11/19 11:36:22;;;;;;;4.82;3.00;;;;;;;17.77;30.10;91923.63;2071686;69;20184;-76
2022/11/19 11:38:52;;;;;;;5.38;2.60;;;;;;;18.43;29.91;91925.72;2071601;69;20141;-76
2022/11/19 11:41:20;;;;;;;4.43;3.20;;;;;;;17.77;31.38;91918.66;2071676;69;20188;-80
2022/11/19 11:44:00;;;;;;;7.07;3.88;;;;;;;17.26;32.63;91908.22;2071699;69;20715;-76
2022/11/19 11:46:51;;;;;;;9.48;6.20;;;;;;;14.42;36.75;91908.56;2071625;69;20267;-76
2022/11/19 11:49:44;;;;;;;313.17;96.85;;;;;;;13.73;37.87;91898.38;2071613;69;20164;-76
2022/11/19 11:52:25;;;;;;;28.50;11.45;;;;;;;13.34;39.13;91898.34;2071812;69;20152;-75
2022/11/19 11:55:01;;;;;;;10.13;4.65;;;;;;;13.46;38.74;91898.78;2071715;69;20150;-76
2022/11/19 11:57:29;;;;;;;7.57;3.03;;;;;;;13.34;38.14;91898.34;2071691;69;20607;-76
2022/11/19 11:59:56;;;;;;;7.40;3.30;;;;;;;12.74;39.63;91892.50;2071561;69;20566;-76
2022/11/19 12:02:31;;;;;;;10.93;5.95;;;;;;;12.11;40.90;91898.38;2071652;69;20565;-79
2022/11/19 12:05:20;;;;;;;7.25;5.22;;;;;;;11.95;41.81;91904.75;2071609;69;20166;-78
2022/11/19 12:08:25;;;;;;;9.55;4.97;;;;;;;12.07;42.21;91898.94;2071801;69;20153;-76
2022/11/19 12:11:10;;;;;;;4.78;2.30;;;;;;;11.03;43.04;91891.50;2068976;69;20151;-76
2022/11/19 12:13:53;;;;;;;1.98;1.35;;;;;;;10.60;43.38;91894.41;2071698;69;20175;-76
2022/11/19 12:16:58;;;;;;;8.25;1.95;;;;;;;10.35;44.77;91892.50;2071438;69;20171;-76
2022/11/19 12:19:52;;;;;;;2.60;1.88;;;;;;;11.04;43.76;91887.34;2057418;69;20173;-75
2022/11/19 12:22:54;;;;;;;3.30;1.80;;;;;;;10.74;43.91;91883.09;2058987;69;20141;-78